Terminal Aerodrome Forecast
Issued by NWS

Home | Current Version | Previous Version | Text Only | Print | Product List | Glossary On
Versions: 1 2 3 4 5 6 7 8 9 10 11 12 13
000
FTUS43 KEAX 211100
TAFSTJ
TAF
KSTJ 211120Z 2112/2212 18011KT P6SM SKC
     FM211500 18015G23KT P6SM FEW250
     FM220000 18009KT P6SM SCT250=

USA.gov is the U.S. government's official web portal to all federal, state and local government web resources and services.